Weston, West Virginia
Current Conditions -  °F | °C
As of 3:55 PM on Thursday 27 Nov 2014 (Local Time) from KW22 Reporting Station
Light Snow Light Snow  
Wind Chill: -6°   Ceiling: 100
Heat Index: -1°   Visibility: 2.5mi
Dew Point: -2°   Wind: 9mph
Humidity: 93%   Direction: 250°WSW
Pressure: 30.13"   Gusts: NA
Location:  39.04°N, 80.47°W
Report Text: KW22 272055Z AUTO 25008KT 2 1/2SM -SN BKN001 BKN007 OVC011 M01/M02 A3013 RMK AO2
Loading
Personal Weather Stations






























Interactive Weather Map New forecast layout! Learn more

10-Day Weather Forecast

Advertisements
Track Severe Weather on mobile